Time;durP1;ratioP1;P1;durP2;ratioP2;P2;SDS_P1;SDS_P2;PMS_P1;PMS_P2;Temp;Humidity;BMP_temperature;BMP_pressure;BME280_temperature;BME280_humidity;BME280_pressure;Samples;Min_cycle;Max_cycle;Signal;HPM_P1;HPM_P2
2022/10/01 00:00:20;;;;;;;2.57;2.27;;;;;;;;;;5095629;28;20621;-75
2022/10/01 00:02:48;;;;;;;2.73;2.23;;;;;;;;;;5075872;28;20233;-75
2022/10/01 00:05:17;;;;;;;3.53;2.40;;;;;;;;;;5075979;28;20248;-75
2022/10/01 00:07:46;;;;;;;3.00;2.27;;;;;;;;;;5086244;28;20229;-75
2022/10/01 00:10:15;;;;;;;3.93;2.60;;;;;;;;;;5095630;28;20221;-75
2022/10/01 00:12:45;;;;;;;2.47;2.23;;;;;;;;;;5084346;28;20233;-75
2022/10/01 00:15:19;;;;;;;2.73;2.47;;;;;;;;;;5075077;28;20254;-75
2022/10/01 00:17:48;;;;;;;3.63;2.73;;;;;;;;;;5086821;28;20240;-78
2022/10/01 00:20:17;;;;;;;2.60;2.10;;;;;;;;;;5097553;28;20209;-78
2022/10/01 00:22:46;;;;;;;2.60;2.40;;;;;;;;;;5096359;28;20257;-77
2022/10/01 00:25:14;;;;;;;3.63;2.20;;;;;;;;;;5097075;28;20204;-78
2022/10/01 00:27:45;;;;;;;3.40;2.40;;;;;;;;;;5096973;28;20240;-79
2022/10/01 00:30:16;;;;;;;4.33;2.63;;;;;;;;;;5096777;28;20233;-78
2022/10/01 00:32:44;;;;;;;3.93;2.47;;;;;;;;;;5097098;28;20745;-78
2022/10/01 00:35:13;;;;;;;2.67;2.47;;;;;;;;;;5096671;28;20257;-79
2022/10/01 00:37:41;;;;;;;2.90;2.60;;;;;;;;;;5097022;28;20241;-78
2022/10/01 00:40:10;;;;;;;2.63;2.37;;;;;;;;;;5096373;28;20727;-78
2022/10/01 00:42:39;;;;;;;4.27;2.43;;;;;;;;;;5095922;28;20264;-78
2022/10/01 00:45:08;;;;;;;2.70;2.50;;;;;;;;;;5096230;28;20194;-79
2022/10/01 00:47:41;;;;;;;4.00;2.70;;;;;;;;;;5096467;28;20202;-79
2022/10/01 00:50:11;;;;;;;4.33;2.60;;;;;;;;;;5095502;28;20225;-78
2022/10/01 00:52:41;;;;;;;3.37;2.50;;;;;;;;;;5095855;28;20229;-79
2022/10/01 00:55:12;;;;;;;3.37;2.67;;;;;;;;;;5096398;28;20214;-78
2022/10/01 00:57:41;;;;;;;4.70;2.70;;;;;;;;;;5096959;28;20225;-79
2022/10/01 01:00:11;;;;;;;3.67;2.80;;;;;;;;;;5097625;28;20202;-76
2022/10/01 01:02:41;;;;;;;4.17;2.60;;;;;;;;;;5096332;28;20222;-78
2022/10/01 01:05:10;;;;;;;2.63;2.43;;;;;;;;;;5095611;28;20206;-78
2022/10/01 01:07:39;;;;;;;3.37;2.70;;;;;;;;;;5096137;28;20609;-78
2022/10/01 01:10:09;;;;;;;3.67;2.40;;;;;;;;;;5096486;28;20197;-78
2022/10/01 01:13:00;;;;;;;3.40;2.40;;;;;;;;;;5096303;28;20210;-78
2022/10/01 01:15:36;;;;;;;2.50;2.30;;;;;;;;;;5095763;28;20205;-78
2022/10/01 01:18:09;;;;;;;3.73;2.30;;;;;;;;;;5095932;28;20212;-79
2022/10/01 01:20:58;;;;;;;4.53;2.40;;;;;;;;;;5095348;28;20221;-79
2022/10/01 01:23:42;;;;;;;2.50;2.20;;;;;;;;;;5095538;28;20640;-78
2022/10/01 01:26:16;;;;;;;3.70;2.53;;;;;;;;;;5094973;28;20178;-78
2022/10/01 01:28:49;;;;;;;2.57;2.37;;;;;;;;;;5095252;28;20217;-79
2022/10/01 01:31:21;;;;;;;3.37;2.43;;;;;;;;;;5094590;28;20309;-79
2022/10/01 01:33:52;;;;;;;3.07;2.20;;;;;;;;;;5094913;28;20232;-78
2022/10/01 01:36:50;;;;;;;3.97;2.50;;;;;;;;;;5096314;28;20245;-79
2022/10/01 01:39:32;;;;;;;3.87;1.90;;;;;;;;;;5094866;28;20247;-79
2022/10/01 01:42:06;;;;;;;2.40;2.20;;;;;;;;;;5094906;28;20572;-78
2022/10/01 01:44:38;;;;;;;2.53;2.30;;;;;;;;;;5094352;28;20255;-78
2022/10/01 01:47:09;;;;;;;4.00;2.20;;;;;;;;;;5094418;28;20650;-79
2022/10/01 01:49:38;;;;;;;3.50;2.60;;;;;;;;;;5093972;28;20221;-78
2022/10/01 01:52:10;;;;;;;3.93;2.40;;;;;;;;;;5094391;28;20234;-79
2022/10/01 01:54:38;;;;;;;3.93;2.20;;;;;;;;;;5093984;28;20253;-78
2022/10/01 01:57:08;;;;;;;3.17;2.50;;;;;;;;;;5093700;28;20264;-78
2022/10/01 01:59:38;;;;;;;3.57;2.20;;;;;;;;;;5093624;28;20266;-78
2022/10/01 02:02:07;;;;;;;4.70;2.20;;;;;;;;;;5094082;28;20185;-79
2022/10/01 02:04:38;;;;;;;2.47;2.27;;;;;;;;;;5093956;28;20645;-78
2022/10/01 02:07:15;;;;;;;2.87;2.20;;;;;;;;;;5093902;28;20651;-78
2022/10/01 02:09:50;;;;;;;2.43;2.23;;;;;;;;;;5093793;28;20284;-78
2022/10/01 02:12:23;;;;;;;3.17;2.43;;;;;;;;;;5093731;28;20224;-78
2022/10/01 02:14:55;;;;;;;3.10;2.80;;;;;;;;;;5096322;28;20618;-78
2022/10/01 02:17:29;;;;;;;3.47;2.53;;;;;;;;;;5097513;28;20253;-77
2022/10/01 02:20:00;;;;;;;2.50;2.27;;;;;;;;;;5097619;28;20230;-78
2022/10/01 02:22:35;;;;;;;3.57;2.50;;;;;;;;;;5098025;28;20219;-77
2022/10/01 02:25:05;;;;;;;4.40;2.70;;;;;;;;;;5097670;28;20228;-78
2022/10/01 02:27:36;;;;;;;2.40;2.20;;;;;;;;;;5097560;28;20222;-77
2022/10/01 02:30:08;;;;;;;4.93;2.70;;;;;;;;;;5097512;28;20277;-77
2022/10/01 02:32:38;;;;;;;2.90;2.60;;;;;;;;;;5097585;28;20337;-78
2022/10/01 02:35:07;;;;;;;4.40;2.73;;;;;;;;;;5097786;28;20202;-78
2022/10/01 02:37:37;;;;;;;4.10;2.37;;;;;;;;;;5097762;28;20257;-78
2022/10/01 02:40:07;;;;;;;4.63;2.60;;;;;;;;;;5097775;28;20723;-78
2022/10/01 02:42:36;;;;;;;4.27;2.40;;;;;;;;;;5097105;28;20301;-79
2022/10/01 02:45:07;;;;;;;4.23;2.50;;;;;;;;;;5097193;28;20237;-79
2022/10/01 02:47:38;;;;;;;3.73;2.40;;;;;;;;;;5097630;28;20214;-79
2022/10/01 02:50:07;;;;;;;4.53;2.70;;;;;;;;;;5097382;28;20204;-79
2022/10/01 02:52:41;;;;;;;5.20;2.50;;;;;;;;;;5097105;28;20241;-79
2022/10/01 02:55:11;;;;;;;2.87;2.60;;;;;;;;;;5097394;28;20225;-79
2022/10/01 02:57:39;;;;;;;2.60;2.40;;;;;;;;;;5096741;28;20260;-79
2022/10/01 03:00:11;;;;;;;4.27;2.33;;;;;;;;;;5096826;28;20296;-78
2022/10/01 03:02:40;;;;;;;3.03;2.60;;;;;;;;;;5096595;28;20257;-78
2022/10/01 03:05:09;;;;;;;3.00;2.40;;;;;;;;;;5097096;28;20293;-78
2022/10/01 03:07:38;;;;;;;2.53;2.30;;;;;;;;;;5096909;28;20245;-77
2022/10/01 03:10:08;;;;;;;3.53;2.50;;;;;;;;;;5096878;28;20263;-78
2022/10/01 03:12:36;;;;;;;2.80;2.50;;;;;;;;;;5096767;28;20759;-78
2022/10/01 03:15:05;;;;;;;4.33;2.97;;;;;;;;;;5096504;28;20202;-78
2022/10/01 03:17:36;;;;;;;3.37;2.97;;;;;;;;;;5096510;28;20221;-79
2022/10/01 03:20:06;;;;;;;3.53;3.03;;;;;;;;;;5096325;28;20186;-78
2022/10/01 03:22:34;;;;;;;5.43;3.13;;;;;;;;;;5096276;28;20327;-79
2022/10/01 03:25:03;;;;;;;4.97;3.13;;;;;;;;;;5096592;28;20244;-79
2022/10/01 03:27:31;;;;;;;3.70;3.10;;;;;;;;;;5096637;28;20262;-80
2022/10/01 03:30:00;;;;;;;3.90;3.43;;;;;;;;;;5096644;28;20208;-81
2022/10/01 03:32:28;;;;;;;4.53;3.30;;;;;;;;;;5095912;28;20259;-79
2022/10/01 03:34:59;;;;;;;4.97;3.00;;;;;;;;;;5096787;28;20283;-80
2022/10/01 03:37:27;;;;;;;6.60;3.83;;;;;;;;;;5096672;28;20224;-79
2022/10/01 03:39:56;;;;;;;5.50;3.57;;;;;;;;;;5096614;28;20621;-80
2022/10/01 03:42:24;;;;;;;4.03;3.60;;;;;;;;;;5096381;28;20233;-79
2022/10/01 03:44:53;;;;;;;4.33;3.40;;;;;;;;;;5096683;28;20640;-80
2022/10/01 03:47:23;;;;;;;4.93;3.83;;;;;;;;;;5096415;28;20247;-79
2022/10/01 03:49:51;;;;;;;5.37;4.20;;;;;;;;;;5096655;28;20198;-80
2022/10/01 03:52:21;;;;;;;4.20;3.80;;;;;;;;;;5096855;28;20610;-79
2022/10/01 03:54:50;;;;;;;5.10;4.23;;;;;;;;;;5096280;28;20237;-80
2022/10/01 03:57:18;;;;;;;4.77;4.30;;;;;;;;;;5096399;28;20320;-78
2022/10/01 03:59:47;;;;;;;5.13;4.23;;;;;;;;;;5096437;28;20237;-80
2022/10/01 04:02:15;;;;;;;6.30;4.60;;;;;;;;;;5096691;28;20233;-80
2022/10/01 04:04:44;;;;;;;6.77;4.50;;;;;;;;;;5096101;28;20209;-80
2022/10/01 04:07:12;;;;;;;6.50;4.40;;;;;;;;;;5096522;28;20237;-80
2022/10/01 04:09:42;;;;;;;6.00;4.53;;;;;;;;;;5096525;28;20298;-80
2022/10/01 04:12:11;;;;;;;5.97;4.37;;;;;;;;;;5097403;28;20263;-80
2022/10/01 04:14:39;;;;;;;7.17;4.73;;;;;;;;;;5096124;28;20346;-80
2022/10/01 04:17:08;;;;;;;5.47;4.97;;;;;;;;;;5096080;28;20248;-79
2022/10/01 04:19:36;;;;;;;6.03;4.23;;;;;;;;;;5095465;28;20292;-79
2022/10/01 04:22:05;;;;;;;7.30;4.57;;;;;;;;;;5095578;28;20241;-79
2022/10/01 04:24:33;;;;;;;6.17;4.73;;;;;;;;;;5095496;28;20253;-78
2022/10/01 04:27:03;;;;;;;6.10;5.03;;;;;;;;;;5095756;28;20642;-78
2022/10/01 04:29:32;;;;;;;7.60;4.83;;;;;;;;;;5095318;28;20202;-78
2022/10/01 04:32:06;;;;;;;6.17;4.50;;;;;;;;;;5095781;28;20213;-78
2022/10/01 04:34:53;;;;;;;5.20;4.80;;;;;;;;;;5076611;28;20271;-78
2022/10/01 04:37:22;;;;;;;5.30;4.80;;;;;;;;;;5074564;28;20269;-77
2022/10/01 04:39:51;;;;;;;5.50;4.97;;;;;;;;;;5074908;28;20610;-78
2022/10/01 04:42:21;;;;;;;6.73;4.80;;;;;;;;;;5074787;28;20233;-77
2022/10/01 04:44:49;;;;;;;7.17;5.00;;;;;;;;;;5074485;28;20293;-78
2022/10/01 04:47:18;;;;;;;6.17;5.00;;;;;;;;;;5074756;28;20724;-78
2022/10/01 04:49:46;;;;;;;5.77;5.23;;;;;;;;;;5074489;28;20249;-77
2022/10/01 04:52:15;;;;;;;7.80;5.67;;;;;;;;;;5074752;28;20293;-77
2022/10/01 04:54:43;;;;;;;6.23;5.20;;;;;;;;;;5074362;28;20317;-77
2022/10/01 04:57:12;;;;;;;6.27;5.67;;;;;;;;;;5074194;28;20242;-76
2022/10/01 04:59:43;;;;;;;5.87;5.27;;;;;;;;;;5074772;28;20202;-77
2022/10/01 05:02:11;;;;;;;5.90;5.40;;;;;;;;;;5074559;28;20210;-77
2022/10/01 05:04:40;;;;;;;5.30;4.80;;;;;;;;;;5074527;28;20309;-77
2022/10/01 05:07:08;;;;;;;7.20;5.70;;;;;;;;;;5074593;28;20209;-77
2022/10/01 05:09:37;;;;;;;6.97;5.90;;;;;;;;;;5074482;28;20238;-77
2022/10/01 05:12:06;;;;;;;6.50;5.50;;;;;;;;;;5074758;28;20206;-76
2022/10/01 05:14:35;;;;;;;8.83;5.73;;;;;;;;;;5074805;28;20230;-77
2022/10/01 05:17:05;;;;;;;6.80;5.17;;;;;;;;;;5074880;28;20233;-77
2022/10/01 05:19:34;;;;;;;8.00;5.70;;;;;;;;;;5074440;28;20576;-77
2022/10/01 05:22:03;;;;;;;6.13;5.53;;;;;;;;;;5074473;28;20232;-77
2022/10/01 05:24:31;;;;;;;6.00;5.40;;;;;;;;;;5074470;28;20317;-76
2022/10/01 05:27:00;;;;;;;7.73;5.50;;;;;;;;;;5074671;28;20667;-76
2022/10/01 05:29:28;;;;;;;9.40;5.70;;;;;;;;;;5074373;28;20674;-77
2022/10/01 05:31:57;;;;;;;5.50;5.00;;;;;;;;;;5073936;28;20308;-76
2022/10/01 05:34:27;;;;;;;5.90;5.10;;;;;;;;;;5074427;28;20226;-76
2022/10/01 05:36:55;;;;;;;6.97;5.40;;;;;;;;;;5074649;28;20231;-77
2022/10/01 05:39:24;;;;;;;6.07;5.20;;;;;;;;;;5073813;28;20244;-76
2022/10/01 05:41:54;;;;;;;6.10;5.40;;;;;;;;;;5079195;28;20197;-76
2022/10/01 05:44:22;;;;;;;7.40;5.60;;;;;;;;;;5094237;28;20265;-76
2022/10/01 05:46:51;;;;;;;5.80;5.13;;;;;;;;;;5094538;28;20206;-76
2022/10/01 05:49:20;;;;;;;5.97;5.10;;;;;;;;;;5093437;28;20289;-76
2022/10/01 05:51:49;;;;;;;7.73;5.03;;;;;;;;;;5094135;28;20288;-77
2022/10/01 05:54:18;;;;;;;5.60;5.10;;;;;;;;;;5094008;28;20221;-77
2022/10/01 05:56:47;;;;;;;6.63;4.93;;;;;;;;;;5093645;28;20206;-76
2022/10/01 05:59:15;;;;;;;7.00;5.20;;;;;;;;;;5083442;28;20313;-76
2022/10/01 06:01:45;;;;;;;5.90;5.30;;;;;;;;;;5081260;28;20201;-76
2022/10/01 06:04:13;;;;;;;5.90;4.67;;;;;;;;;;5088761;28;20280;-76
2022/10/01 06:06:42;;;;;;;4.83;4.43;;;;;;;;;;5072422;28;20241;-77
2022/10/01 06:09:12;;;;;;;5.30;4.77;;;;;;;;;;5073647;28;20260;-76
2022/10/01 06:11:40;;;;;;;5.37;4.77;;;;;;;;;;5073758;28;20249;-76
2022/10/01 06:14:09;;;;;;;5.97;5.00;;;;;;;;;;5073886;28;20226;-77
2022/10/01 06:16:38;;;;;;;5.27;4.87;;;;;;;;;;5073695;28;20251;-77
2022/10/01 06:19:06;;;;;;;5.20;4.67;;;;;;;;;;5073838;28;20305;-76
2022/10/01 06:21:35;;;;;;;5.37;4.60;;;;;;;;;;5073771;28;20285;-76
2022/10/01 06:24:04;;;;;;;5.40;4.33;;;;;;;;;;5073808;28;20597;-78
2022/10/01 06:26:34;;;;;;;5.27;4.77;;;;;;;;;;5073797;28;20200;-77
2022/10/01 06:29:02;;;;;;;4.90;4.20;;;;;;;;;;5073391;28;20598;-77
2022/10/01 06:31:31;;;;;;;6.23;4.90;;;;;;;;;;5073259;28;20644;-76
2022/10/01 06:34:01;;;;;;;5.70;4.33;;;;;;;;;;5073623;28;20265;-76
2022/10/01 06:36:29;;;;;;;4.90;4.50;;;;;;;;;;5073707;28;20289;-76
2022/10/01 06:38:58;;;;;;;4.97;4.53;;;;;;;;;;5073671;28;20687;-77
2022/10/01 06:41:26;;;;;;;4.80;4.40;;;;;;;;;;5073860;28;20226;-77
2022/10/01 06:43:56;;;;;;;5.47;4.47;;;;;;;;;;5073251;28;20258;-76
2022/10/01 06:46:24;;;;;;;4.80;4.40;;;;;;;;;;5073638;28;20611;-77
2022/10/01 06:48:53;;;;;;;4.63;4.23;;;;;;;;;;5073102;28;20238;-77
2022/10/01 06:52:47;;;;;;;5.97;4.17;;;;;;;;;;5073517;28;20202;-76
2022/10/01 06:54:10;;;;;;;4.60;4.10;;;;;;;;;;5073487;28;20667;-77
2022/10/01 06:56:39;;;;;;;3.87;3.57;;;;;;;;;;5073412;28;20213;-76
2022/10/01 06:59:09;;;;;;;5.17;4.20;;;;;;;;;;5073000;28;20230;-77
2022/10/01 07:01:38;;;;;;;4.80;4.40;;;;;;;;;;5086255;28;20190;-77
2022/10/01 07:04:07;;;;;;;4.87;4.47;;;;;;;;;;5097324;28;20312;-77
2022/10/01 07:06:35;;;;;;;4.60;4.20;;;;;;;;;;5097342;28;20289;-77
2022/10/01 07:09:04;;;;;;;5.00;4.50;;;;;;;;;;5097108;28;20201;-77
2022/10/01 07:11:32;;;;;;;4.67;3.80;;;;;;;;;;5097194;28;20232;-76
2022/10/01 07:14:02;;;;;;;4.40;4.00;;;;;;;;;;5096862;28;20222;-77
2022/10/01 07:16:33;;;;;;;4.10;3.80;;;;;;;;;;5096761;28;20209;-77
2022/10/01 07:19:02;;;;;;;3.57;3.27;;;;;;;;;;5096648;28;20289;-77
2022/10/01 07:21:30;;;;;;;3.50;3.13;;;;;;;;;;5096757;28;20313;-77
2022/10/01 07:23:59;;;;;;;3.53;2.83;;;;;;;;;;5096136;28;20210;-77
2022/10/01 07:26:28;;;;;;;3.70;3.40;;;;;;;;;;5097251;28;20233;-77
2022/10/01 07:28:56;;;;;;;2.90;2.60;;;;;;;;;;5096247;28;20339;-76
2022/10/01 07:31:25;;;;;;;2.80;2.60;;;;;;;;;;5096769;28;20214;-77
2022/10/01 07:33:58;;;;;;;2.77;2.37;;;;;;;;;;5096521;28;20316;-77
2022/10/01 07:36:26;;;;;;;2.57;2.37;;;;;;;;;;5096977;28;20186;-77
2022/10/01 07:38:55;;;;;;;2.33;2.23;;;;;;;;;;5096558;28;20745;-75
2022/10/01 07:41:23;;;;;;;3.30;2.50;;;;;;;;;;5095004;28;20197;-75
2022/10/01 07:43:52;;;;;;;2.73;2.53;;;;;;;;;;5083668;28;20273;-76
2022/10/01 07:46:21;;;;;;;2.70;2.50;;;;;;;;;;5090913;28;20198;-76
2022/10/01 07:48:49;;;;;;;2.33;2.13;;;;;;;;;;5087618;28;20202;-75
2022/10/01 07:51:19;;;;;;;4.60;2.20;;;;;;;;;;5092726;28;20241;-75
2022/10/01 07:53:49;;;;;;;2.30;2.10;;;;;;;;;;5095720;28;20226;-75
2022/10/01 07:56:18;;;;;;;2.43;1.93;;;;;;;;;;5075234;28;20207;-75
2022/10/01 07:58:46;;;;;;;1.93;1.83;;;;;;;;;;5084136;28;20210;-75
2022/10/01 08:01:16;;;;;;;1.93;1.73;;;;;;;;;;5083993;28;20202;-75
2022/10/01 08:03:44;;;;;;;1.70;1.60;;;;;;;;;;5094492;28;20748;-75
2022/10/01 08:06:13;;;;;;;3.07;2.07;;;;;;;;;;5095713;28;20682;-75
2022/10/01 08:08:43;;;;;;;2.43;2.10;;;;;;;;;;5086080;28;20603;-76
2022/10/01 08:11:13;;;;;;;2.10;1.90;;;;;;;;;;5077832;28;20238;-75
2022/10/01 08:13:42;;;;;;;1.90;1.80;;;;;;;;;;5080831;28;20301;-75
2022/10/01 08:16:11;;;;;;;2.07;1.97;;;;;;;;;;5074779;28;20272;-75
2022/10/01 08:18:40;;;;;;;2.70;2.20;;;;;;;;;;5073944;28;20199;-76
2022/10/01 08:21:09;;;;;;;3.23;2.20;;;;;;;;;;5075484;28;20245;-75
2022/10/01 08:23:37;;;;;;;2.30;2.10;;;;;;;;;;5075009;28;20221;-75
2022/10/01 08:26:08;;;;;;;2.10;2.00;;;;;;;;;;5074910;28;20256;-78
2022/10/01 08:28:36;;;;;;;2.03;1.93;;;;;;;;;;5074462;28;20625;-78
2022/10/01 08:31:07;;;;;;;2.60;2.40;;;;;;;;;;5074824;28;20245;-78
2022/10/01 08:33:36;;;;;;;2.63;2.43;;;;;;;;;;5075206;28;20648;-78
2022/10/01 08:36:06;;;;;;;2.90;2.60;;;;;;;;;;5074457;28;20686;-78
2022/10/01 08:38:36;;;;;;;3.43;2.57;;;;;;;;;;5074881;28;20198;-77
2022/10/01 08:41:17;;;;;;;2.70;2.50;;;;;;;;;;5081336;28;20217;-77
2022/10/01 08:43:51;;;;;;;3.00;2.80;;;;;;;;;;5081807;28;20301;-77
2022/10/01 08:46:21;;;;;;;3.30;3.00;;;;;;;;;;5075144;28;20206;-77
2022/10/01 08:48:53;;;;;;;3.17;2.90;;;;;;;;;;5076981;28;20191;-77
2022/10/01 08:51:28;;;;;;;3.03;2.80;;;;;;;;;;5092001;28;20189;-78
2022/10/01 08:53:59;;;;;;;3.73;3.40;;;;;;;;;;5081354;28;20249;-77
2022/10/01 08:56:31;;;;;;;3.57;3.27;;;;;;;;;;5093966;28;20222;-78
2022/10/01 08:59:00;;;;;;;3.40;3.20;;;;;;;;;;5094142;28;20233;-77
2022/10/01 09:01:29;;;;;;;3.67;3.37;;;;;;;;;;5094415;28;20666;-77
2022/10/01 09:03:59;;;;;;;3.47;3.23;;;;;;;;;;5094879;28;20304;-77
2022/10/01 09:06:28;;;;;;;3.50;3.20;;;;;;;;;;5087645;28;20606;-77
2022/10/01 09:09:02;;;;;;;3.57;3.27;;;;;;;;;;5074762;28;20632;-78
2022/10/01 09:11:46;;;;;;;3.87;3.20;;;;;;;;;;5074493;28;20221;-78
2022/10/01 09:14:20;;;;;;;5.50;4.80;;;;;;;;;;5088949;28;20295;-77
2022/10/01 09:16:52;;;;;;;3.63;3.10;;;;;;;;;;5094624;28;20631;-78
2022/10/01 09:19:31;;;;;;;4.67;3.10;;;;;;;;;;5094616;28;20202;-78
2022/10/01 09:22:02;;;;;;;3.00;2.80;;;;;;;;;;5094239;28;20277;-79
2022/10/01 09:24:39;;;;;;;4.37;3.53;;;;;;;;;;5094508;28;20221;-78
2022/10/01 09:27:12;;;;;;;4.70;4.20;;;;;;;;;;5094598;28;20661;-78
2022/10/01 09:29:44;;;;;;;8.67;7.20;;;;;;;;;;5094286;28;20288;-78
2022/10/01 09:32:15;;;;;;;3.73;3.07;;;;;;;;;;5093754;28;20218;-78
2022/10/01 09:34:44;;;;;;;4.73;4.00;;;;;;;;;;5094037;28;20221;-78
2022/10/01 09:37:18;;;;;;;5.80;5.30;;;;;;;;;;5094063;28;20248;-78
2022/10/01 09:39:53;;;;;;;6.40;5.37;;;;;;;;;;5093867;28;20221;-79
2022/10/01 09:42:26;;;;;;;3.90;3.50;;;;;;;;;;5093857;28;20225;-78
2022/10/01 09:44:56;;;;;;;28.80;22.10;;;;;;;;;;5093893;28;20218;-79
2022/10/01 09:47:25;;;;;;;8.57;6.80;;;;;;;;;;5093534;28;20206;-79
2022/10/01 09:49:54;;;;;;;4.37;3.70;;;;;;;;;;5094266;28;20212;-79
2022/10/01 09:52:25;;;;;;;5.37;4.60;;;;;;;;;;5093702;28;20245;-80
2022/10/01 09:54:57;;;;;;;6.53;5.90;;;;;;;;;;5094043;28;20582;-79
2022/10/01 09:57:27;;;;;;;3.97;3.70;;;;;;;;;;5094392;28;20186;-79
2022/10/01 10:00:02;;;;;;;6.57;5.90;;;;;;;;;;5094169;28;20251;-79
2022/10/01 10:02:32;;;;;;;4.37;4.07;;;;;;;;;;5093741;28;20225;-79
2022/10/01 10:05:01;;;;;;;5.20;4.80;;;;;;;;;;5094930;28;20217;-79
2022/10/01 10:07:31;;;;;;;6.33;5.17;;;;;;;;;;5093457;28;20241;-79
2022/10/01 10:10:08;;;;;;;4.20;3.90;;;;;;;;;;5093861;28;20670;-79
2022/10/01 10:12:37;;;;;;;6.57;5.33;;;;;;;;;;5093693;28;20186;-78
2022/10/01 10:15:16;;;;;;;6.97;4.70;;;;;;;;;;5093766;28;20614;-79
2022/10/01 10:17:50;;;;;;;6.10;5.60;;;;;;;;;;5093739;28;20646;-78
2022/10/01 10:20:24;;;;;;;5.47;4.93;;;;;;;;;;5092601;28;20221;-78
2022/10/01 10:22:53;;;;;;;5.50;5.10;;;;;;;;;;5092501;28;20291;-79
2022/10/01 10:25:23;;;;;;;5.40;5.00;;;;;;;;;;5092372;28;20227;-78
2022/10/01 10:27:54;;;;;;;5.53;5.07;;;;;;;;;;5092326;28;20654;-80
2022/10/01 10:30:25;;;;;;;5.73;5.23;;;;;;;;;;5077396;28;20230;-80
2022/10/01 10:32:55;;;;;;;5.20;4.80;;;;;;;;;;5071377;28;20237;-79
2022/10/01 10:35:25;;;;;;;5.40;5.10;;;;;;;;;;5074478;28;20242;-80
2022/10/01 10:37:56;;;;;;;6.27;5.10;;;;;;;;;;5076950;28;20245;-79
2022/10/01 10:40:28;;;;;;;6.00;5.40;;;;;;;;;;5076882;28;20277;-80
2022/10/01 10:42:58;;;;;;;5.30;4.90;;;;;;;;;;5076866;28;20222;-80
2022/10/01 10:45:32;;;;;;;5.90;5.27;;;;;;;;;;5077185;28;20614;-79
2022/10/01 10:48:02;;;;;;;5.40;5.00;;;;;;;;;;5077055;28;20198;-79
2022/10/01 10:50:32;;;;;;;5.00;4.57;;;;;;;;;;5077513;28;20280;-80
2022/10/01 10:53:00;;;;;;;5.43;4.93;;;;;;;;;;5077082;28;20253;-80
2022/10/01 10:55:30;;;;;;;4.30;3.93;;;;;;;;;;5077100;28;20243;-81
2022/10/01 10:58:09;;;;;;;4.20;3.80;;;;;;;;;;5076889;28;20689;-80
2022/10/01 11:00:47;;;;;;;4.30;3.90;;;;;;;;;;5084110;28;20223;-80
2022/10/01 11:03:16;;;;;;;4.13;3.73;;;;;;;;;;5097228;28;20244;-80
2022/10/01 11:05:45;;;;;;;5.20;3.70;;;;;;;;;;5097158;28;20240;-80
2022/10/01 11:08:14;;;;;;;5.63;4.23;;;;;;;;;;5096804;28;20249;-80
2022/10/01 11:10:49;;;;;;;4.13;3.83;;;;;;;;;;5097201;28;20209;-80
2022/10/01 11:13:25;;;;;;;7.73;3.90;;;;;;;;;;5096783;28;20263;-80
2022/10/01 11:16:12;;;;;;;7.43;3.53;;;;;;;;;;5096571;28;20178;-80
2022/10/01 11:19:00;;;;;;;3.90;3.50;;;;;;;;;;5096752;28;20268;-80
2022/10/01 11:21:47;;;;;;;3.67;3.33;;;;;;;;;;5096866;28;20206;-80
2022/10/01 11:24:24;;;;;;;6.00;3.30;;;;;;;;;;5096761;28;20307;-80
2022/10/01 11:26:55;;;;;;;3.70;3.20;;;;;;;;;;5096800;28;20198;-80
2022/10/01 11:29:30;;;;;;;3.43;3.13;;;;;;;;;;5096476;28;20205;-81
2022/10/01 11:32:04;;;;;;;4.60;3.30;;;;;;;;;;5096582;28;20206;-80
2022/10/01 11:34:49;;;;;;;4.63;3.20;;;;;;;;;;5096584;28;20252;-80
2022/10/01 11:37:28;;;;;;;6.63;3.23;;;;;;;;;;5096114;28;20209;-79
2022/10/01 11:39:58;;;;;;;4.83;2.60;;;;;;;;;;5096555;28;20232;-81
2022/10/01 11:42:33;;;;;;;3.60;2.50;;;;;;;;;;5095673;28;20312;-80
2022/10/01 11:45:03;;;;;;;5.63;2.80;;;;;;;;;;5096162;28;20250;-79
2022/10/01 11:47:34;;;;;;;4.60;2.80;;;;;;;;;;5094968;28;20229;-80
2022/10/01 11:50:05;;;;;;;3.43;2.60;;;;;;;;;;5096237;28;20632;-80
2022/10/01 11:52:36;;;;;;;5.57;2.83;;;;;;;;;;5096164;28;20288;-79
2022/10/01 12:00:51;;;;;;;5.15;2.67;;;;;;;;;;5095984;28;20622;-80
2022/10/01 12:03:22;;;;;;;4.28;2.40;;;;;;;;;;5096147;28;20552;-80
2022/10/01 12:05:53;;;;;;;3.38;2.40;;;;;;;;;;5096016;28;20639;-80
2022/10/01 12:08:24;;;;;;;4.40;2.30;;;;;;;;;;5095669;28;20281;-80
2022/10/01 12:10:57;;;;;;;3.80;2.40;;;;;;;;;;5095992;28;20647;-81
2022/10/01 12:13:28;;;;;;;4.93;2.78;;;;;;;;;;5095917;28;20253;-80
2022/10/01 12:15:58;;;;;;;4.05;2.33;;;;;;;;;;5096024;28;20612;-80
2022/10/01 12:18:30;;;;;;;3.45;2.20;;;;;;;;;;5094586;28;20197;-79
2022/10/01 12:21:02;;;;;;;3.30;2.35;;;;;;;;;;5094488;28;20852;-78
2022/10/01 12:23:33;;;;;;;3.10;2.30;;;;;;;;;;5094153;28;20308;-80
2022/10/01 12:26:06;;;;;;;4.47;2.03;;;;;;;;;;5094800;28;20239;-79
2022/10/01 12:28:38;;;;;;;4.25;2.47;;;;;;;;;;5093962;28;20706;-78
2022/10/01 12:31:09;;;;;;;4.68;2.42;;;;;;;;;;5093862;28;20300;-77
2022/10/01 12:33:42;;;;;;;3.03;2.00;;;;;;;;;;5093641;28;20253;-79
2022/10/01 12:36:14;;;;;;;4.47;2.10;;;;;;;;;;5093920;28;20275;-78
2022/10/01 12:38:51;;;;;;;4.15;2.40;;;;;;;;;;5093788;28;20241;-78
2022/10/01 12:41:25;;;;;;;4.05;2.30;;;;;;;;;;5094137;28;20185;-80
2022/10/01 12:44:11;;;;;;;5.45;2.65;;;;;;;;;;5093721;28;20265;-79
2022/10/01 12:46:43;;;;;;;6.07;2.47;;;;;;;;;;5084280;28;20284;-78
2022/10/01 12:49:21;;;;;;;3.53;2.20;;;;;;;;;;5093723;28;20210;-79
2022/10/01 12:51:55;;;;;;;4.38;2.20;;;;;;;;;;5093819;28;20264;-79
2022/10/01 12:54:33;;;;;;;3.50;2.15;;;;;;;;;;5093593;28;20251;-79
2022/10/01 12:57:06;;;;;;;2.92;2.00;;;;;;;;;;5093728;28;20243;-79
2022/10/01 12:59:41;;;;;;;3.65;2.08;;;;;;;;;;5093468;28;20217;-79
2022/10/01 13:02:21;;;;;;;2.90;1.73;;;;;;;;;;5092947;28;20209;-78
2022/10/01 13:05:08;;;;;;;2.25;1.42;;;;;;;;;;5093389;28;20181;-79
2022/10/01 13:07:47;;;;;;;3.65;1.90;;;;;;;;;;5093725;28;20222;-79
2022/10/01 13:10:23;;;;;;;4.00;1.55;;;;;;;;;;5093587;28;20196;-78
2022/10/01 13:13:00;;;;;;;5.07;1.67;;;;;;;;;;5092762;28;20257;-78
2022/10/01 13:15:30;;;;;;;4.03;1.70;;;;;;;;;;5093509;28;20239;-78
2022/10/01 13:18:01;;;;;;;4.00;1.60;;;;;;;;;;5093052;28;20190;-78
2022/10/01 13:20:32;;;;;;;3.20;1.77;;;;;;;;;;5093020;28;20185;-78
2022/10/01 13:23:05;;;;;;;3.53;1.80;;;;;;;;;;5093340;28;20230;-80
2022/10/01 13:25:37;;;;;;;5.25;0.90;;;;;;;;;;5093007;28;20250;-76
2022/10/01 13:28:11;;;;;;;4.20;1.10;;;;;;;;;;5090644;28;20632;-77
2022/10/01 13:30:50;;;;;;;3.67;0.90;;;;;;;;;;5079565;28;20243;-77
2022/10/01 13:33:23;;;;;;;2.27;0.63;;;;;;;;;;5072385;28;20222;-78
2022/10/01 13:35:55;;;;;;;1.57;0.63;;;;;;;;;;5085003;28;20655;-77
2022/10/01 13:38:31;;;;;;;1.43;0.63;;;;;;;;;;5092960;28;20179;-77
2022/10/01 13:41:01;;;;;;;1.27;0.90;;;;;;;;;;5079900;28;20620;-76
2022/10/01 13:43:30;;;;;;;2.00;0.77;;;;;;;;;;5090098;28;20586;-77
2022/10/01 13:46:06;;;;;;;1.03;0.60;;;;;;;;;;5083312;28;20644;-77
2022/10/01 13:48:36;;;;;;;1.93;0.80;;;;;;;;;;5074688;28;20256;-76
2022/10/01 13:51:07;;;;;;;1.07;0.60;;;;;;;;;;5071618;28;20260;-76
2022/10/01 13:53:38;;;;;;;0.93;0.70;;;;;;;;;;5079958;28;20221;-76
2022/10/01 13:56:08;;;;;;;4.77;1.07;;;;;;;;;;5082319;28;20295;-77
2022/10/01 13:58:38;;;;;;;2.17;0.90;;;;;;;;;;5071777;28;20245;-77
2022/10/01 14:01:08;;;;;;;1.93;0.80;;;;;;;;;;5086181;28;20297;-77
2022/10/01 14:03:49;;;;;;;1.80;0.80;;;;;;;;;;5091549;28;20267;-77
2022/10/01 14:06:20;;;;;;;2.77;1.00;;;;;;;;;;5076429;28;20190;-78
2022/10/01 14:08:50;;;;;;;1.87;0.80;;;;;;;;;;5087020;28;20709;-77
2022/10/01 14:17:00;;;;;;;3.97;1.43;;;;;;;;;;5084342;28;20230;-76
2022/10/01 14:19:28;;;;;;;2.73;1.40;;;;;;;;;;5092100;28;20251;-77
2022/10/01 14:22:09;;;;;;;1.70;1.30;;;;;;;;;;5072150;28;20234;-76
2022/10/01 14:24:45;;;;;;;3.60;1.33;;;;;;;;;;5071966;28;20756;-77
2022/10/01 14:27:19;;;;;;;3.33;1.50;;;;;;;;;;5090703;28;20613;-77
2022/10/01 14:29:52;;;;;;;2.10;1.43;;;;;;;;;;5092173;28;20263;-77
2022/10/01 14:32:27;;;;;;;4.40;1.60;;;;;;;;;;5092061;28;20210;-78
2022/10/01 14:34:59;;;;;;;3.23;2.10;;;;;;;;;;5092315;28;20186;-78
2022/10/01 14:37:29;;;;;;;4.93;3.20;;;;;;;;;;5092906;28;20206;-77
2022/10/01 14:40:03;;;;;;;6.33;5.50;;;;;;;;;;5092753;28;20252;-78
2022/10/01 14:42:32;;;;;;;7.23;5.53;;;;;;;;;;5092450;28;20202;-76
2022/10/01 14:45:14;;;;;;;4.67;3.63;;;;;;;;;;5091833;28;20209;-77
2022/10/01 14:47:43;;;;;;;4.13;2.60;;;;;;;;;;5090772;28;20237;-77
2022/10/01 14:50:13;;;;;;;2.70;2.00;;;;;;;;;;5090852;28;20277;-77
2022/10/01 14:52:45;;;;;;;3.03;1.93;;;;;;;;;;5091049;28;20272;-77
2022/10/01 14:55:17;;;;;;;2.80;1.60;;;;;;;;;;5092979;28;20551;-77
2022/10/01 14:57:48;;;;;;;2.53;1.70;;;;;;;;;;5093094;28;20226;-76
2022/10/01 15:00:18;;;;;;;2.50;1.60;;;;;;;;;;5093546;28;20194;-77
2022/10/01 15:02:47;;;;;;;2.40;1.60;;;;;;;;;;5093237;28;20222;-78
2022/10/01 15:05:21;;;;;;;3.80;1.70;;;;;;;;;;5092733;28;20292;-77
2022/10/01 15:07:49;;;;;;;3.00;1.70;;;;;;;;;;5092883;28;20315;-77
2022/10/01 15:10:20;;;;;;;3.93;1.80;;;;;;;;;;5092551;28;20300;-77
2022/10/01 15:12:51;;;;;;;3.00;1.67;;;;;;;;;;5092882;28;20309;-78
2022/10/01 15:15:20;;;;;;;2.23;1.67;;;;;;;;;;5092879;28;20288;-78
2022/10/01 15:17:49;;;;;;;3.63;1.83;;;;;;;;;;5092635;28;20241;-78